Rock Island, Washington
Current Conditions -  °F | °C
As of 8:55 AM on Friday 24 Oct 2014 (Local Time) from KEAT Reporting Station
Clear Clear  
Wind Chill: 41°   Ceiling: Unl
Heat Index: 45°   Visibility: 10mi
Dew Point: 38°   Wind: 7mph
Humidity: 76%   Direction: 300°WNW
Pressure: 30.07"   Gusts: NA
Location:  47.38°N, 120.14°W
Report Text: KEAT 241555Z AUTO 30006KT 10SM CLR 07/03 A3007 RMK AO2 SLP186 T00720033
Loading
Personal Weather Stations






























Interactive Weather Map
Tropical Storm Tracking
New forecast layout! Learn more

10-Day Weather Forecast

Advertisements
Track Severe Weather on mobile